Time;durP1;ratioP1;P1;durP2;ratioP2;P2;SDS_P1;SDS_P2;PMS_P1;PMS_P2;Temp;Humidity;BMP_temperature;BMP_pressure;BME280_temperature;BME280_humidity;BME280_pressure;Samples;Min_cycle;Max_cycle;Signal;HPM_P1;HPM_P2
2022/05/23 00:00:44;;;;;;;;;23.50;21.00;;;;;22.54;50.60;99950.16;2056711;27;47545;-61
2022/05/23 00:01:45;;;;;;;;;15.00;14.00;;;;;22.54;50.48;99952.00;2062253;28;47296;-60
2022/05/23 00:02:46;;;;;;;;;7.75;7.75;;;;;22.53;50.57;99951.16;2086706;27;47870;-60
2022/05/23 00:03:46;;;;;;;;;6.00;6.00;;;;;22.53;50.53;99950.28;2065767;28;47546;-60
2022/05/23 00:04:47;;;;;;;;;7.00;7.00;;;;;22.52;50.68;99960.25;2085038;27;47384;-60
2022/05/23 00:05:47;;;;;;;;;17.75;15.25;;;;;22.53;50.70;99947.59;2071879;28;47418;-61
2022/05/23 00:06:49;;;;;;;;;20.25;18.75;;;;;22.52;50.55;99943.16;2061109;28;47941;-60
2022/05/23 00:07:50;;;;;;;;;34.00;30.60;;;;;22.52;50.64;99937.75;2054441;28;47991;-61
2022/05/23 00:08:50;;;;;;;;;15.00;15.00;;;;;22.52;50.73;99943.16;2058153;28;48283;-61
2022/05/23 00:09:51;;;;;;;;;8.50;8.50;;;;;22.49;50.86;99938.88;2059897;28;48065;-60
2022/05/23 00:10:51;;;;;;;;;8.25;8.25;;;;;22.49;50.88;99936.19;2063961;28;47464;-59
2022/05/23 00:11:53;;;;;;;;;17.75;16.25;;;;;22.48;50.76;99922.75;2069397;28;47349;-59
2022/05/23 00:12:54;;;;;;;;;30.60;29.20;;;;;22.46;50.91;99922.03;2083094;27;47461;-60
2022/05/23 00:13:54;;;;;;;;;22.00;20.00;;;;;22.47;51.09;99940.81;2066251;28;48363;-60
2022/05/23 00:14:55;;;;;;;;;15.75;15.75;;;;;22.45;50.99;99947.34;2076150;28;47900;-59
2022/05/23 00:15:55;;;;;;;;;9.67;9.67;;;;;22.46;50.88;99949.06;2055498;27;47966;-59
2022/05/23 00:16:56;;;;;;;;;7.67;7.67;;;;;22.46;50.84;99955.34;2056797;28;47677;-59
2022/05/23 00:17:56;;;;;;;;;6.67;6.67;;;;;22.45;51.03;99956.31;2055816;28;47316;-59
2022/05/23 00:18:56;;;;;;;;;5.67;5.67;;;;;22.46;51.18;99960.75;2075069;28;47599;-58
2022/05/23 00:19:57;;;;;;;;;5.00;5.00;;;;;22.46;50.88;99962.59;2066857;28;47653;-59
2022/05/23 00:20:57;;;;;;;;;6.50;6.50;;;;;22.46;50.24;99951.78;2058254;28;47779;-58
2022/05/23 00:21:58;;;;;;;;;5.00;5.00;;;;;22.45;50.33;99948.22;2089810;28;49129;-60
2022/05/23 00:22:58;;;;;;;;;11.75;11.75;;;;;22.46;50.76;99949.06;2085948;27;47870;-60
2022/05/23 00:23:59;;;;;;;;;6.75;6.75;;;;;22.45;50.76;99942.81;2111803;27;47969;-60
2022/05/23 00:24:59;;;;;;;;;6.50;4.75;;;;;22.44;50.26;99938.38;2058216;27;47810;-58
2022/05/23 00:25:59;;;;;;;;;5.50;5.50;;;;;22.44;50.92;99932.13;2057992;28;47495;-59
2022/05/23 00:27:01;;;;;;;;;6.00;6.00;;;;;22.43;50.33;99933.13;2070088;28;47040;-60
2022/05/23 00:28:01;;;;;;;;;7.20;6.60;;;;;22.43;50.34;99927.72;2069300;28;47370;-60
2022/05/23 00:29:03;;;;;;;;;5.25;5.25;;;;;22.42;50.43;99921.44;2099126;27;47181;-60
2022/05/23 00:30:06;;;;;;;;;3.20;3.20;;;;;22.43;50.56;99925.00;2102419;28;47978;-59
2022/05/23 00:31:08;;;;;;;;;4.40;4.20;;;;;22.44;50.47;99922.16;2092668;28;47615;-60
2022/05/23 00:36:06;;;;;;;;;4.20;4.20;;;;;22.44;50.58;99926.72;2062843;28;47550;-60
2022/05/23 00:37:07;;;;;;;;;8.00;7.00;;;;;22.42;50.54;99907.91;2065859;28;46032;-60
2022/05/23 00:38:07;;;;;;;;;8.25;6.75;;;;;22.43;50.51;99911.47;2108549;27;47735;-60
2022/05/23 00:39:08;;;;;;;;;6.00;6.00;;;;;22.43;50.68;99900.66;2106602;27;48532;-60
2022/05/23 00:40:21;;;;;;;;;8.50;8.00;;;;;22.43;50.18;99895.25;2070077;28;47611;-59
2022/05/23 00:44:09;;;;;;;;;4.60;4.60;;;;;22.40;50.50;99896.38;2069461;28;47823;-58
2022/05/23 00:45:13;;;;;;;;;4.67;3.67;;;;;22.41;50.70;99900.81;2065931;28;48439;-60
2022/05/23 00:46:14;;;;;;;;;4.50;4.50;;;;;22.41;50.40;99899.94;2068945;28;47862;-60
2022/05/23 00:47:20;;;;;;;;;5.00;5.00;;;;;22.40;50.66;99899.09;2062399;28;47274;-59
2022/05/23 00:48:23;;;;;;;;;4.20;4.20;;;;;22.39;50.60;99899.22;2077986;28;47658;-59
2022/05/23 00:49:31;;;;;;;;;5.00;5.00;;;;;22.39;50.56;99889.25;2055288;27;47951;-60
2022/05/23 00:50:34;;;;;;;;;4.50;4.50;;;;;22.41;50.59;99891.84;2083535;28;47887;-58
2022/05/23 00:51:35;;;;;;;;;4.60;4.60;;;;;22.40;50.62;99885.56;2073614;28;47998;-59
2022/05/23 00:52:44;;;;;;;;;4.33;4.33;;;;;22.41;50.33;99883.72;2073480;27;47494;-60
2022/05/23 00:53:52;;;;;;;;;5.80;5.80;;;;;22.41;50.67;99892.69;2066498;28;47568;-60
2022/05/23 00:54:58;;;;;;;;;4.20;4.00;;;;;22.41;50.54;99889.13;2065142;27;47525;-60
2022/05/23 00:55:59;;;;;;;;;4.20;4.20;;;;;22.42;50.12;99878.19;2069462;28;47726;-60
2022/05/23 00:56:59;;;;;;;;;4.00;4.00;;;;;22.43;50.54;99876.34;2074606;28;48615;-59
2022/05/23 00:58:10;;;;;;;;;3.33;3.33;;;;;22.42;50.26;99880.88;2071450;28;47631;-60
2022/05/23 00:59:15;;;;;;;;;4.75;4.25;;;;;22.42;50.54;99877.31;2066802;27;47699;-59
2022/05/23 01:00:16;;;;;;;;;3.20;3.20;;;;;22.43;50.14;99881.75;2064655;28;47631;-60
2022/05/23 01:01:25;;;;;;;;;4.40;4.40;;;;;22.44;50.45;99883.47;2058326;28;47788;-60
2022/05/23 01:02:29;;;;;;;;;4.75;4.75;;;;;22.45;50.11;99874.34;2072993;28;47491;-60
2022/05/23 01:03:30;;;;;;;;;4.80;4.80;;;;;22.44;50.70;99881.63;2060869;28;47624;-60
2022/05/23 01:04:31;;;;;;;;;5.00;5.00;;;;;22.45;50.48;99879.75;2086886;28;47900;-59
2022/05/23 01:05:36;;;;;;;;;4.25;3.00;;;;;22.45;50.46;99877.06;2062227;27;47698;-59
2022/05/23 01:06:36;;;;;;;;;3.75;3.75;;;;;22.45;50.25;99875.22;2055109;28;48049;-59
2022/05/23 01:07:36;;;;;;;;;5.67;5.00;;;;;22.45;50.38;99871.66;2076945;28;47393;-60
2022/05/23 01:08:40;;;;;;;;;5.67;5.67;;;;;22.44;50.54;99870.78;2076999;27;48222;-59
2022/05/23 01:09:41;;;;;;;;;4.75;4.75;;;;;22.44;50.54;99875.34;2067196;28;48012;-60
2022/05/23 01:10:43;;;;;;;;;4.33;4.33;;;;;22.44;50.52;99876.19;2061609;28;47755;-60
2022/05/23 01:11:44;;;;;;;;;2.75;2.75;;;;;22.41;50.18;99871.06;2062802;28;47687;-60
2022/05/23 01:12:44;;;;;;;;;3.00;3.00;;;;;22.40;50.15;99861.25;2063837;28;48093;-60
2022/05/23 01:13:44;;;;;;;;;4.33;4.33;;;;;22.42;50.40;99853.00;2063983;28;47401;-60
2022/05/23 01:14:56;;;;;;;;;5.00;5.00;;;;;22.41;50.51;99851.28;2085185;27;47905;-60
2022/05/23 01:15:56;;;;;;;;;5.50;5.50;;;;;22.40;50.22;99844.16;2067595;28;47575;-60
2022/05/23 01:16:57;;;;;;;;;3.67;3.67;;;;;22.38;50.53;99838.88;2069870;27;47697;-60
2022/05/23 01:17:57;;;;;;;;;4.33;4.33;;;;;22.38;50.47;99841.59;2064513;28;47743;-60
2022/05/23 01:18:58;;;;;;;;;7.00;7.00;;;;;22.38;50.46;99821.81;2059071;28;47724;-59
2022/05/23 01:19:58;;;;;;;;;6.00;6.00;;;;;22.36;50.73;99821.94;2066636;28;48163;-60
2022/05/23 01:21:02;;;;;;;;;3.67;3.67;;;;;22.38;50.32;99822.66;2066049;27;47961;-60
2022/05/23 01:22:12;;;;;;;;;5.00;5.00;;;;;22.39;50.28;99831.63;2073235;28;47193;-59
2022/05/23 01:23:47;;;;;;;;;4.75;4.75;;;;;22.39;50.75;99818.97;2064703;27;46992;-60
2022/05/23 01:24:52;;;;;;;;;4.00;4.00;;;;;22.40;50.16;99814.44;2060410;28;47819;-61
2022/05/23 01:25:53;;;;;;;;;3.50;3.50;;;;;22.40;50.37;99812.56;2076041;28;47882;-59
2022/05/23 01:26:55;;;;;;;;;4.67;4.67;;;;;22.39;50.43;99816.28;2065224;28;47650;-60
2022/05/23 01:27:55;;;;;;;;;4.25;4.25;;;;;22.39;50.37;99813.56;2068451;28;48196;-60
2022/05/23 01:28:55;;;;;;;;;5.00;4.67;;;;;22.39;50.41;99802.75;2077342;28;47250;-60
2022/05/23 01:29:57;;;;;;;;;5.00;4.00;;;;;22.39;50.67;99797.34;2077729;28;47715;-60
2022/05/23 01:30:57;;;;;;;;;3.00;3.00;;;;;22.40;50.41;99796.34;2078057;27;48157;-59
2022/05/23 01:31:59;;;;;;;;;6.00;6.00;;;;;22.40;50.46;99781.97;2085206;28;47417;-60
2022/05/23 01:33:03;;;;;;;;;4.75;4.75;;;;;22.39;50.00;99789.25;2062305;28;47310;-58
2022/05/23 01:34:03;;;;;;;;;4.00;4.00;;;;;22.38;50.79;99784.81;2090859;27;48103;-58
2022/05/23 01:35:05;;;;;;;;;5.00;5.00;;;;;22.38;50.21;99783.97;2061401;28;47576;-60
2022/05/23 01:36:11;;;;;;;;;5.50;5.50;;;;;22.36;50.85;99783.22;2067956;28;47699;-58
2022/05/23 01:37:12;;;;;;;;;5.25;5.25;;;;;22.35;50.59;99782.34;2058097;28;47903;-59
2022/05/23 01:38:12;;;;;;;;;3.33;3.33;;;;;22.36;50.79;99786.81;2078879;28;47623;-58
2022/05/23 01:39:13;;;;;;;;;5.00;5.00;;;;;22.33;50.55;99785.19;2070141;27;47673;-59
2022/05/23 01:40:15;;;;;;;;;5.67;5.67;;;;;22.32;50.71;99779.94;2078593;28;47730;-60
2022/05/23 01:41:16;;;;;;;;;1.00;1.00;;;;;22.32;50.65;99782.63;2068816;28;47649;-61
2022/05/23 01:42:16;;;;;;;;;4.33;4.33;;;;;22.31;50.74;99780.91;2096515;27;47467;-60
2022/05/23 01:43:16;;;;;;;;;6.00;6.00;;;;;22.27;50.82;99764.09;2061147;28;47511;-60
2022/05/23 01:44:17;;;;;;;;;6.67;6.67;;;;;22.27;50.39;99777.63;2069496;28;47640;-59
2022/05/23 01:45:21;;;;;;;;;5.67;5.67;;;;;22.26;50.99;99767.81;2061915;27;47425;-60
2022/05/23 01:46:22;;;;;;;;;5.75;5.75;;;;;22.24;50.91;99772.50;2088564;28;47940;-60
2022/05/23 01:47:23;;;;;;;;;4.75;4.75;;;;;22.24;50.74;99766.22;2064149;27;47518;-60
2022/05/23 01:48:24;;;;;;;;;4.00;3.67;;;;;22.23;50.96;99761.78;2062699;28;47399;-60
2022/05/23 01:49:25;;;;;;;;;4.75;4.75;;;;;22.21;51.37;99761.91;2060385;28;48031;-60
2022/05/23 01:50:26;;;;;;;;;5.33;5.33;;;;;22.21;51.03;99747.53;2060512;28;47996;-60
2022/05/23 01:51:26;;;;;;;;;5.00;5.00;;;;;22.19;51.08;99744.97;2056696;28;49514;-60
2022/05/23 01:52:27;;;;;;;;;6.00;6.00;;;;;22.17;51.49;99733.44;2070671;28;47832;-60
2022/05/23 01:53:27;;;;;;;;;5.67;5.67;;;;;22.17;51.08;99732.59;2057444;28;47627;-60
2022/05/23 01:54:27;;;;;;;;;5.67;5.67;;;;;22.16;51.20;99729.03;2088450;28;48057;-60
2022/05/23 01:55:28;;;;;;;;;4.33;4.33;;;;;22.16;51.03;99729.03;2063734;28;47102;-59
2022/05/23 01:56:29;;;;;;;;;3.75;3.75;;;;;22.15;51.47;99726.47;2099979;28;47997;-61
2022/05/23 01:57:31;;;;;;;;;5.00;5.00;;;;;22.16;51.29;99733.59;2059841;28;47583;-61
2022/05/23 02:01:13;;;;;;;;;4.00;4.00;;;;;22.13;51.35;99729.31;2065875;28;47093;-60
2022/05/23 02:02:15;;;;;;;;;4.00;4.00;;;;;22.10;51.20;99729.53;2076462;28;47585;-60
2022/05/23 02:03:16;;;;;;;;;6.00;4.75;;;;;22.12;51.51;99732.13;2062683;27;47430;-58
2022/05/23 02:04:16;;;;;;;;;6.00;6.00;;;;;22.09;51.07;99729.66;2095482;28;45749;-59
2022/05/23 02:05:17;;;;;;;;;6.00;4.75;;;;;22.09;51.06;99735.94;2094949;28;47372;-59
2022/05/23 02:06:18;;;;;;;;;6.00;4.50;;;;;22.08;51.24;99727.97;2104534;28;47215;-60
2022/05/23 02:07:19;;;;;;;;;4.00;4.00;;;;;22.08;51.35;99725.25;2073345;28;47947;-60
2022/05/23 02:08:19;;;;;;;;;6.75;6.75;;;;;22.07;51.24;99728.94;2062909;28;47975;-60
2022/05/23 02:09:26;;;;;;;;;4.67;4.00;;;;;22.06;51.25;99725.41;2057986;28;47916;-61
2022/05/23 02:10:27;;;;;;;;;4.25;4.25;;;;;22.06;51.58;99729.94;2055040;28;47655;-60
2022/05/23 02:11:27;;;;;;;;;5.25;5.25;;;;;22.05;51.63;99723.66;2062424;27;47836;-59
2022/05/23 02:12:28;;;;;;;;;4.67;4.67;;;;;22.04;51.76;99721.94;2098603;28;47157;-60
2022/05/23 02:13:31;;;;;;;;;5.67;5.67;;;;;22.02;51.52;99721.22;2059294;28;47847;-59
2022/05/23 02:14:32;;;;;;;;;4.50;4.50;;;;;22.01;51.29;99717.66;2077922;28;48444;-58
2022/05/23 02:15:33;;;;;;;;;8.33;7.67;;;;;22.01;51.75;99722.19;2059782;28;47460;-60
2022/05/23 02:16:33;;;;;;;;;4.00;4.00;;;;;22.01;51.82;99719.50;2054875;28;47280;-61
2022/05/23 02:17:34;;;;;;;;;4.00;4.00;;;;;22.00;51.96;99718.66;2054648;28;48045;-60
2022/05/23 02:18:34;;;;;;;;;7.25;5.75;;;;;22.00;51.69;99726.75;2076046;28;47810;-60
2022/05/23 02:19:36;;;;;;;;;6.67;6.67;;;;;21.99;52.10;99727.75;2056050;28;47534;-62
2022/05/23 02:20:36;;;;;;;;;6.25;5.00;;;;;21.99;52.20;99727.75;2102563;27;47472;-60
2022/05/23 02:21:37;;;;;;;;;5.67;5.33;;;;;21.99;51.61;99733.16;2101925;27;47892;-61
2022/05/23 02:22:37;;;;;;;;;7.00;7.00;;;;;21.97;51.89;99740.50;2095941;28;47383;-61
2022/05/23 02:23:38;;;;;;;;;5.00;5.00;;;;;21.96;51.77;99736.09;2094489;28;48173;-60
2022/05/23 02:24:38;;;;;;;;;5.50;5.50;;;;;21.94;51.81;99743.47;2090962;27;47666;-59
2022/05/23 02:25:39;;;;;;;;;7.67;6.00;;;;;21.96;51.80;99743.34;2055631;28;46383;-60
2022/05/23 02:26:39;;;;;;;;;4.00;4.00;;;;;21.94;52.23;99737.22;2072261;28;47385;-61
2022/05/23 02:27:39;;;;;;;;;4.67;4.67;;;;;21.93;51.86;99744.44;2055565;28;47847;-60
2022/05/23 02:28:40;;;;;;;;;5.00;5.00;;;;;21.94;52.33;99745.31;2097255;28;47847;-60
2022/05/23 02:29:40;;;;;;;;;5.67;5.67;;;;;21.92;51.79;99742.75;2062069;28;47702;-60
2022/05/23 02:30:42;;;;;;;;;4.67;4.67;;;;;21.92;52.25;99741.88;2071370;28;47778;-61
2022/05/23 02:31:42;;;;;;;;;5.75;5.75;;;;;21.94;52.23;99750.72;2061545;28;48019;-61
2022/05/23 02:32:45;;;;;;;;;7.67;7.67;;;;;21.93;52.26;99744.44;2063093;28;47984;-60
2022/05/23 02:33:45;;;;;;;;;5.75;5.50;;;;;21.94;52.64;99748.00;2071688;28;47495;-61
2022/05/23 02:34:46;;;;;;;;;7.00;6.00;;;;;21.95;51.81;99745.19;2069030;27;47897;-60
2022/05/23 02:35:47;;;;;;;;;4.00;4.00;;;;;21.96;51.92;99749.59;2081839;28;47149;-59
2022/05/23 02:36:48;;;;;;;;;5.00;5.00;;;;;21.96;52.26;99748.72;2067786;28;45651;-60
2022/05/23 02:37:49;;;;;;;;;5.67;5.67;;;;;21.95;51.75;99747.03;2066541;28;47609;-60
2022/05/23 02:38:49;;;;;;;;;5.33;5.33;;;;;21.95;51.84;99750.56;2064707;28;47795;-61
2022/05/23 02:39:49;;;;;;;;;6.00;6.00;;;;;21.94;52.22;99746.16;2069576;28;47698;-60
2022/05/23 02:40:50;;;;;;;;;5.00;5.00;;;;;21.93;52.33;99757.09;2080389;28;47511;-60
2022/05/23 02:41:50;;;;;;;;;5.33;5.33;;;;;21.92;52.29;99758.94;2055222;28;47118;-60
2022/05/23 02:42:51;;;;;;;;;5.67;5.67;;;;;21.91;52.07;99753.69;2059322;28;47708;-61
2022/05/23 02:43:51;;;;;;;;;7.25;7.25;;;;;21.90;52.38;99752.81;2070209;28;47674;-61
2022/05/23 02:44:51;;;;;;;;;6.67;6.67;;;;;21.90;52.46;99752.81;2067647;28;48078;-61
2022/05/23 02:45:52;;;;;;;;;4.33;4.33;;;;;21.91;52.34;99753.69;2066904;28;48147;-59
2022/05/23 02:46:53;;;;;;;;;6.25;6.25;;;;;21.91;51.98;99750.97;2097569;28;48204;-60
2022/05/23 02:47:53;;;;;;;;;7.00;5.40;;;;;21.89;52.26;99755.66;2095626;28;47692;-60
2022/05/23 02:48:54;;;;;;;;;6.00;6.00;;;;;21.89;52.58;99758.34;2092107;28;47589;-61
2022/05/23 02:49:55;;;;;;;;;5.20;5.20;;;;;21.88;52.38;99756.66;2093927;28;47361;-60
2022/05/23 02:50:55;;;;;;;;;5.50;5.00;;;;;21.86;52.00;99750.53;2092075;28;47441;-61
2022/05/23 02:51:56;;;;;;;;;5.00;5.00;;;;;21.86;52.13;99747.81;2094223;28;48042;-61
2022/05/23 02:52:56;;;;;;;;;5.00;5.00;;;;;21.84;52.42;99747.91;2081394;28;47577;-60
2022/05/23 02:53:56;;;;;;;;;5.75;5.00;;;;;21.84;52.10;99753.31;2078731;28;48388;-61
2022/05/23 02:54:57;;;;;;;;;5.00;5.00;;;;;21.83;52.03;99757.00;2091841;28;47929;-61
2022/05/23 02:55:57;;;;;;;;;7.50;5.75;;;;;21.83;52.48;99753.44;2095000;28;47486;-60
2022/05/23 02:56:58;;;;;;;;;5.75;5.75;;;;;21.82;52.48;99746.34;2090594;28;47572;-61
2022/05/23 02:57:58;;;;;;;;;7.25;7.25;;;;;21.82;52.76;99749.03;2090001;28;47410;-61
2022/05/23 02:58:59;;;;;;;;;6.25;6.00;;;;;21.82;52.64;99746.34;2093279;28;48071;-61
2022/05/23 03:00:00;;;;;;;;;5.50;5.50;;;;;21.82;52.56;99738.22;2094689;28;47611;-61
2022/05/23 03:01:00;;;;;;;;;5.00;5.00;;;;;21.81;52.48;99737.38;2092397;28;47647;-60
2022/05/23 03:03:20;;;;;;;;;6.00;5.40;;;;;21.82;52.62;99747.19;2083867;28;47240;-59
2022/05/23 03:04:20;;;;;;;;;5.00;4.00;;;;;21.81;52.48;99740.09;2086725;28;47298;-60
2022/05/23 03:05:20;;;;;;;;;6.50;6.50;;;;;21.83;52.44;99742.66;2090824;28;47929;-60
2022/05/23 03:06:21;;;;;;;;;6.33;5.67;;;;;21.83;52.47;99739.94;2095590;28;47570;-60
2022/05/23 03:07:21;;;;;;;;;4.33;4.33;;;;;21.82;52.59;99740.94;2092199;28;48203;-59
2022/05/23 03:08:24;;;;;;;;;4.75;4.75;;;;;21.82;52.63;99741.78;2095083;28;48093;-60
2022/05/23 03:09:27;;;;;;;;;5.20;5.20;;;;;21.83;52.24;99742.66;2093058;28;47168;-60
2022/05/23 03:10:27;;;;;;;;;6.40;6.00;;;;;21.83;52.48;99746.19;2094498;28;47725;-60
2022/05/23 03:11:28;;;;;;;;;7.75;6.00;;;;;21.82;52.75;99744.50;2091807;28;47583;-60
2022/05/23 03:12:28;;;;;;;;;6.00;6.00;;;;;21.83;52.40;99750.75;2086197;28;47676;-59
2022/05/23 03:13:29;;;;;;;;;30.50;27.75;;;;;21.82;52.59;99744.50;2094604;28;47946;-60
2022/05/23 03:14:30;;;;;;;;;16.75;14.75;;;;;21.83;52.52;99756.16;2093896;28;47845;-60
2022/05/23 03:15:30;;;;;;;;;11.00;10.75;;;;;21.83;52.46;99758.84;2088198;28;48058;-61
2022/05/23 03:16:31;;;;;;;;;9.00;8.25;;;;;21.82;52.32;99762.53;2087965;28;47565;-60
2022/05/23 03:17:32;;;;;;;;;9.00;9.00;;;;;21.81;52.33;99768.94;2089342;28;47885;-60
2022/05/23 03:18:33;;;;;;;;;5.80;5.80;;;;;21.79;52.27;99773.59;2074192;28;47994;-60
2022/05/23 03:19:38;;;;;;;;;6.75;6.75;;;;;21.77;52.25;99771.03;2062419;28;48027;-60
2022/05/23 03:20:39;;;;;;;;;7.00;7.00;;;;;21.76;52.37;99772.03;2060214;28;47812;-60
2022/05/23 03:26:59;;;;;;;;;6.00;6.00;;;;;21.81;52.81;99756.28;2058000;28;47372;-60
2022/05/23 03:28:01;;;;;;;;;6.60;6.60;;;;;21.82;52.49;99766.09;2056534;28;47586;-60
2022/05/23 03:29:02;;;;;;;;;7.00;5.75;;;;;21.84;52.23;99755.16;2092828;28;47747;-60
2022/05/23 03:30:05;;;;;;;;;8.00;8.00;;;;;21.83;52.25;99740.81;2093690;28;47700;-60
2022/05/23 03:31:06;;;;;;;;;6.00;4.25;;;;;21.84;52.17;99741.66;2058260;28;47868;-59
2022/05/23 03:32:07;;;;;;;;;7.25;6.50;;;;;21.85;52.38;99735.28;2054317;28;48257;-60
2022/05/23 03:33:07;;;;;;;;;6.00;6.00;;;;;21.85;52.53;99730.75;2063101;28;47532;-59
2022/05/23 03:34:07;;;;;;;;;5.75;5.75;;;;;21.86;52.54;99745.13;2069031;28;47422;-60
2022/05/23 03:35:08;;;;;;;;;7.00;7.00;;;;;21.87;52.50;99733.31;2056493;28;47434;-59
2022/05/23 03:36:10;;;;;;;;;7.00;6.67;;;;;21.86;52.22;99724.38;2062887;28;47207;-59
2022/05/23 03:37:10;;;;;;;;;4.75;4.75;;;;;21.87;52.88;99727.91;2061946;28;48136;-59
2022/05/23 03:38:11;;;;;;;;;4.00;4.00;;;;;21.88;52.50;99726.94;2092464;28;45847;-59
2022/05/23 03:39:11;;;;;;;;;6.25;6.25;;;;;21.88;52.76;99719.69;2091457;28;47490;-60
2022/05/23 03:40:12;;;;;;;;;5.00;5.00;;;;;21.89;52.48;99716.00;2061421;28;45851;-60
2022/05/23 03:41:13;;;;;;;;;7.80;7.40;;;;;21.89;52.69;99712.44;2060541;28;47807;-60
2022/05/23 03:42:14;;;;;;;;;7.00;7.00;;;;;21.89;52.48;99701.63;2058729;28;47645;-59
2022/05/23 03:43:15;;;;;;;;;7.25;6.25;;;;;21.89;52.50;99693.53;2057936;28;47631;-60
2022/05/23 03:44:15;;;;;;;;;8.40;7.60;;;;;21.87;52.55;99688.25;2067869;28;47806;-60
2022/05/23 03:45:16;;;;;;;;;5.75;5.75;;;;;21.85;52.21;99689.34;2075046;28;47195;-61
2022/05/23 03:46:17;;;;;;;;;7.60;7.60;;;;;21.86;52.17;99683.00;2070736;27;47818;-60
2022/05/23 03:47:17;;;;;;;;;4.25;4.25;;;;;21.85;52.73;99673.16;2066627;28;47897;-60
2022/05/23 03:48:17;;;;;;;;;5.75;5.75;;;;;21.84;52.32;99672.28;2062074;28;47666;-59
2022/05/23 03:49:18;;;;;;;;;6.25;6.25;;;;;21.85;52.37;99670.44;2067770;28;47894;-60
2022/05/23 03:50:20;;;;;;;;;6.50;6.50;;;;;21.86;52.27;99677.59;2097981;27;47224;-58
2022/05/23 03:51:20;;;;;;;;;7.00;7.00;;;;;21.85;52.97;99684.84;2065131;28;47732;-60
2022/05/23 03:52:21;;;;;;;;;5.00;5.00;;;;;21.87;52.30;99698.22;2069714;28;48057;-60
2022/05/23 03:53:21;;;;;;;;;6.00;6.00;;;;;21.85;52.44;99697.47;2057211;27;48071;-59
2022/05/23 03:54:22;;;;;;;;;8.50;6.25;;;;;21.83;52.81;99686.78;2086720;28;47555;-59
2022/05/23 03:55:23;;;;;;;;;5.00;5.00;;;;;21.83;52.80;99697.59;2059298;27;47556;-59
2022/05/23 03:56:23;;;;;;;;;7.60;6.20;;;;;21.82;52.82;99686.91;2099491;28;47459;-59
2022/05/23 03:57:24;;;;;;;;;6.00;6.00;;;;;21.83;52.65;99684.09;2074949;27;47682;-59
2022/05/23 03:58:26;;;;;;;;;5.50;5.50;;;;;21.82;53.08;99684.22;2096584;28;47825;-61
2022/05/23 03:59:28;;;;;;;;;3.20;3.20;;;;;21.83;52.75;99694.03;2092966;28;48280;-61
2022/05/23 04:00:28;;;;;;;;;5.80;5.40;;;;;21.82;52.73;99697.72;2066852;28;47555;-62
2022/05/23 04:01:30;;;;;;;;;5.50;5.00;;;;;21.81;53.28;99696.88;2055141;28;47983;-62
2022/05/23 04:02:30;;;;;;;;;6.00;5.40;;;;;21.81;53.28;99696.88;2054861;28;48396;-62
2022/05/23 04:03:31;;;;;;;;;7.75;7.75;;;;;21.81;53.00;99701.41;2056095;28;47879;-63
2022/05/23 04:04:32;;;;;;;;;8.25;7.00;;;;;21.79;53.12;99698.00;2098628;28;48089;-62
2022/05/23 04:05:33;;;;;;;;;5.80;5.20;;;;;21.78;53.13;99704.38;2073824;28;48171;-62
2022/05/23 04:06:35;;;;;;;;;2.00;2.00;;;;;21.76;53.22;99699.13;2092188;27;47578;-62
2022/05/23 04:07:36;;;;;;;;;7.00;6.00;;;;;21.77;52.94;99697.25;2096866;28;47856;-62
2022/05/23 04:08:37;;;;;;;;;5.60;5.60;;;;;21.76;52.83;99693.72;2076918;27;47632;-62
2022/05/23 04:09:37;;;;;;;;;6.75;5.25;;;;;21.75;53.24;99686.59;2063873;28;47254;-62
2022/05/23 04:10:39;;;;;;;;;6.00;4.50;;;;;21.77;53.26;99687.31;2082452;28;47555;-62
2022/05/23 04:11:39;;;;;;;;;5.40;5.40;;;;;21.79;53.33;99676.38;2067565;28;48073;-63
2022/05/23 04:12:40;;;;;;;;;6.75;5.50;;;;;21.77;52.93;99676.50;2092909;27;47265;-64
2022/05/23 04:13:40;;;;;;;;;5.75;4.25;;;;;21.77;53.00;99678.38;2069064;28;47332;-61
2022/05/23 04:14:41;;;;;;;;;4.00;4.00;;;;;21.79;52.92;99670.97;2058472;28;47230;-62
2022/05/23 04:15:41;;;;;;;;;5.67;5.67;;;;;21.78;52.93;99663.88;2060648;28;47807;-62
2022/05/23 04:16:49;;;;;;;;;7.00;6.00;;;;;21.80;52.92;99654.66;2065579;28;48047;-63
2022/05/23 04:17:49;;;;;;;;;4.25;4.25;;;;;21.82;52.75;99641.00;2057208;28;47921;-63
2022/05/23 04:18:49;;;;;;;;;5.00;5.00;;;;;21.82;53.43;99647.25;2052889;28;48232;-62
2022/05/23 04:19:50;;;;;;;;;6.25;5.75;;;;;21.83;53.09;99654.38;2063138;28;47612;-63
2022/05/23 04:20:50;;;;;;;;;5.50;5.00;;;;;21.85;52.64;99659.66;2087457;28;47655;-63
2022/05/23 04:21:51;;;;;;;;;5.00;5.00;;;;;21.85;53.25;99655.13;2085111;28;47302;-63
2022/05/23 04:22:51;;;;;;;;;4.50;4.50;;;;;21.86;52.85;99654.13;2081965;27;47332;-62
2022/05/23 04:23:52;;;;;;;;;4.25;4.25;;;;;21.87;52.67;99647.75;2101864;28;47639;-63
2022/05/23 04:24:52;;;;;;;;;5.00;5.00;;;;;21.89;53.22;99650.31;2068826;27;47756;-62
2022/05/23 04:25:53;;;;;;;;;5.67;5.67;;;;;21.89;53.22;99653.88;2058357;28;47720;-62
2022/05/23 04:26:56;;;;;;;;;5.50;5.00;;;;;21.90;53.08;99649.31;2074200;28;47281;-63
2022/05/23 04:27:56;;;;;;;;;6.00;6.00;;;;;21.91;53.07;99642.94;2071836;28;47944;-62
2022/05/23 04:28:57;;;;;;;;;5.67;4.00;;;;;21.92;53.22;99644.63;2082567;27;47473;-60
2022/05/23 04:29:58;;;;;;;;;5.33;5.33;;;;;21.92;52.59;99641.94;2063648;28;47412;-61
2022/05/23 04:30:58;;;;;;;;;5.00;4.00;;;;;21.92;53.04;99637.38;2061314;28;47471;-63
2022/05/23 04:31:59;;;;;;;;;6.00;6.00;;;;;21.93;52.94;99631.00;2058285;28;47780;-61
2022/05/23 04:35:38;;;;;;;;;6.25;6.25;;;;;21.95;52.72;99611.94;2067724;28;47852;-62
2022/05/23 04:36:38;;;;;;;;;6.67;5.00;;;;;21.96;53.32;99603.72;2065276;28;47674;-61
2022/05/23 04:37:45;;;;;;;;;4.67;4.67;;;;;21.97;53.21;99607.28;2064799;28;48343;-62
2022/05/23 04:38:45;;;;;;;;;5.00;5.00;;;;;21.96;53.67;99600.16;2087501;28;47069;-62
2022/05/23 04:39:46;;;;;;;;;6.00;6.00;;;;;21.96;53.46;99601.00;2094208;28;47909;-62
2022/05/23 04:40:46;;;;;;;;;6.00;6.00;;;;;21.95;53.68;99599.28;2077498;28;47523;-61
2022/05/23 04:41:47;;;;;;;;;4.75;4.75;;;;;21.94;53.72;99596.72;2064233;28;47702;-61
2022/05/23 04:42:48;;;;;;;;;6.00;6.00;;;;;21.94;53.83;99597.59;2071428;27;47583;-63
2022/05/23 04:43:48;;;;;;;;;7.00;7.00;;;;;21.94;54.35;99592.19;2067952;28;47947;-63
2022/05/23 04:44:51;;;;;;;;;7.00;6.00;;;;;21.93;54.21;99578.81;2064981;28;47608;-63
2022/05/23 04:45:51;;;;;;;;;5.40;5.40;;;;;21.93;53.88;99576.13;2070031;27;47569;-62
2022/05/23 04:49:41;;;;;;;;;6.00;5.25;;;;;21.92;54.17;99575.25;2060492;28;48280;-62
2022/05/23 04:50:42;;;;;;;;;6.00;6.00;;;;;21.92;53.95;99594.16;2064092;28;47633;-62
2022/05/23 04:51:42;;;;;;;;;7.67;6.33;;;;;21.92;53.98;99604.97;2078823;28;48091;-62
2022/05/23 04:52:42;;;;;;;;;4.00;4.00;;;;;21.93;54.39;99620.19;2065211;28;48037;-62
2022/05/23 04:53:43;;;;;;;;;5.33;5.33;;;;;21.92;54.13;99625.72;2081649;28;48109;-62
2022/05/23 04:54:44;;;;;;;;;5.67;5.67;;;;;21.92;54.31;99623.88;2062366;28;47851;-62
2022/05/23 04:55:44;;;;;;;;;5.00;5.00;;;;;21.92;54.74;99623.03;2060727;28;48222;-61
2022/05/23 04:56:44;;;;;;;;;7.25;7.25;;;;;21.91;54.45;99629.41;2057859;28;47717;-63
2022/05/23 04:57:46;;;;;;;;;7.33;7.33;;;;;21.90;54.60;99625.88;2072288;28;48177;-63
2022/05/23 04:58:46;;;;;;;;;6.25;4.50;;;;;21.89;54.20;99613.34;2061332;28;47733;-63
2022/05/23 04:59:47;;;;;;;;;4.00;4.00;;;;;21.91;54.36;99613.22;2056296;28;47863;-63
2022/05/23 05:00:47;;;;;;;;;6.33;6.33;;;;;21.90;54.88;99620.47;2057357;28;47607;-63
2022/05/23 05:01:48;;;;;;;;;5.67;5.67;;;;;21.92;55.12;99623.03;2058977;28;47784;-63
2022/05/23 05:02:49;;;;;;;;;6.00;6.00;;;;;21.92;54.97;99620.31;2067883;28;48069;-62
2022/05/23 05:03:53;;;;;;;;;7.33;6.33;;;;;21.91;55.01;99624.03;2061390;28;47543;-64
2022/05/23 05:04:53;;;;;;;;;7.00;7.00;;;;;21.89;55.13;99624.16;2069231;27;47730;-63
2022/05/23 05:05:53;;;;;;;;;6.00;6.00;;;;;21.89;55.67;99623.31;2061112;28;47527;-63
2022/05/23 05:06:54;;;;;;;;;5.33;4.33;;;;;21.87;55.23;99623.44;2059984;28;48239;-63
2022/05/23 05:07:57;;;;;;;;;5.67;5.67;;;;;21.86;55.29;99607.38;2069838;28;48113;-62
2022/05/23 05:08:57;;;;;;;;;5.00;5.00;;;;;21.85;55.44;99603.81;2066181;28;47675;-62
2022/05/23 05:09:57;;;;;;;;;6.33;6.33;;;;;21.85;54.90;99595.72;2067756;28;48025;-62